Marco Polo — C6JZ7 — position and weather

sailwx.info

Track history (hours):
 
Tides and Currents Weather Stations Pressure Air Temp Water Temp Dewpoint Dewpoint Depression Visibility Wind Speed Wind Dir Waves Ship Positions

Marco Polo

Operator: Orient Lines

Last reported at 2017-Oct-19 16:58 UTC. Time now 2017-Oct-20 03:38 UTC.
Position N 29°05' W 016°11'.

Type: Ship. MMSI: 308691456.

Date/timePositionNaut miles runAvg speedWind from/ knotsBaromVisibWave heightAir tempDewpointWater temp
2017-Oct-19 16:58N 29°05' W 016°11'815.9
2017-Oct-19 16:30N 28°57' W 016°10'816.1
2017-Oct-19 15:59N 28°49' W 016°08'1815.7
2017-Oct-19 14:51N 28°31' W 016°05'615.7
2017-Oct-19 14:29N 28°29' W 016°11'3 0.7
2017-Oct-19 10:12N 28°28' W 016°14'0 0.0
2017-Oct-19 09:57N 28°28' W 016°14'0 0.0
2017-Oct-19 09:24N 28°28' W 016°14'0 0.0
2017-Oct-19 09:00N 28°28' W 016°14'0 0.0
2017-Oct-19 08:30N 28°28' W 016°14'0 0.0
2017-Oct-19 07:42N 28°28' W 016°14'0 0.0
2017-Oct-19 07:30N 28°28' W 016°14'0 0.0
2017-Oct-19 07:00N 28°28' W 016°14'0 0.0
2017-Oct-19 06:30N 28°28' W 016°14'0 0.0
2017-Oct-19 06:00N 28°28' W 016°14'0 0.1
2017-Oct-19 05:30N 28°28' W 016°14'1 2.9
2017-Oct-19 05:00N 28°28' W 016°13'3 6.1
2017-Oct-19 04:30N 28°28' W 016°09'5 9.1
2017-Oct-19 04:00N 28°26' W 016°05'5 9.7
2017-Oct-19 03:30N 28°24' W 015°59'5 9.7
2017-Oct-19 03:00N 28°22' W 015°54'5 9.5
2017-Oct-19 02:30N 28°21' W 015°49'5 9.5
2017-Oct-19 02:00N 28°19' W 015°44'1 3.0
2017-Oct-19 01:30N 28°20' W 015°43'2 4.9
2017-Oct-19 01:00N 28°19' W 015°40'510.3
2017-Oct-19 00:30N 28°21' W 015°35'5 9.8
2017-Oct-19 00:00N 28°17' W 015°32'4 8.2
2017-Oct-18 23:30N 28°15' W 015°28'5 9.7
2017-Oct-18 23:00N 28°14' W 015°23'5 9.1
2017-Oct-18 22:30N 28°10' W 015°22'3 6.9
2017-Oct-18 22:00N 28°08' W 015°25'1 2.0
2017-Oct-18 21:30N 28°08' W 015°25'0 0.0
2017-Oct-18 20:56N 28°08' W 015°25'0 0.0
2017-Oct-18 20:26N 28°08' W 015°25'0 0.0
2017-Oct-18 19:56N 28°08' W 015°25'0 0.0
2017-Oct-18 19:26N 28°08' W 015°25'0 0.0
2017-Oct-18 18:56N 28°08' W 015°25'0 0.0
2017-Oct-18 18:26N 28°08' W 015°25'0 0.0
2017-Oct-18 17:59N 28°08' W 015°25'0 0.0
2017-Oct-18 17:29N 28°08' W 015°25'0 0.0
2017-Oct-18 16:59N 28°08' W 015°25'0 0.0
2017-Oct-18 16:29N 28°08' W 015°25'0 0.0
2017-Oct-18 15:59N 28°08' W 015°25'0 0.0
2017-Oct-18 15:29N 28°08' W 015°25'0 0.0
2017-Oct-18 14:59N 28°08' W 015°25'0 0.0
2017-Oct-18 13:59N 28°08' W 015°25'0 0.0
2017-Oct-18 13:29N 28°08' W 015°25'0 0.0
2017-Oct-18 12:59N 28°08' W 015°25'0 0.0
2017-Oct-18 12:29N 28°08' W 015°25'0 0.0
2017-Oct-18 11:59N 28°08' W 015°25'0 0.0
2017-Oct-18 11:29N 28°08' W 015°25'0 0.0
2017-Oct-18 10:59N 28°08' W 015°25'0 0.0
2017-Oct-18 10:29N 28°08' W 015°25'0 0.0
2017-Oct-18 09:50N 28°08' W 015°25'0 0.0
2017-Oct-18 09:20N 28°08' W 015°25'0 0.0
2017-Oct-18 08:50N 28°08' W 015°25'0 0.0
2017-Oct-18 08:23N 28°08' W 015°25'0 0.0
2017-Oct-18 07:53N 28°08' W 015°25'0 0.0
2017-Oct-18 07:23N 28°08' W 015°25'0 0.0
2017-Oct-18 06:53N 28°08' W 015°25'0 0.0
2017-Oct-18 06:23N 28°08' W 015°25'0 0.0
2017-Oct-18 05:53N 28°08' W 015°25'0 0.0
2017-Oct-18 05:30N 28°08' W 015°25'1 2.8
2017-Oct-18 05:00N 28°07' W 015°25'611.0
2017-Oct-18 04:30N 28°08' W 015°19'713.6
2017-Oct-18 04:00N 28°09' W 015°11'713.7
2017-Oct-18 03:30N 28°11' W 015°03'612.9
2017-Oct-18 03:01N 28°15' W 014°58'714.3
2017-Oct-18 02:30N 28°21' W 014°55'713.3
2017-Oct-18 02:00N 28°25' W 014°48'511.1
2017-Oct-18 01:30N 28°28' W 014°43'4710.3
2017-Oct-17 21:00N 28°49' W 013°55'1610.3
2017-Oct-17 19:27N 28°53' W 013°38'613.5
2017-Oct-17 18:59N 28°57' W 013°32'1 0.8
2017-Oct-17 17:46N 28°58' W 013°32'0 0.0
2017-Oct-17 17:28N 28°58' W 013°32'0 0.0
2017-Oct-17 16:58N 28°58' W 013°32'0 0.0
2017-Oct-17 16:25N 28°58' W 013°32'0 0.0
2017-Oct-17 15:58N 28°58' W 013°32'0 0.0
2017-Oct-17 15:19N 28°58' W 013°32'0 0.0
2017-Oct-17 14:55N 28°58' W 013°32'0 0.0
2017-Oct-17 14:25N 28°58' W 013°32'0 0.0
2017-Oct-17 13:55N 28°58' W 013°32'0 0.0
2017-Oct-17 13:19N 28°58' W 013°32'0 0.0
2017-Oct-17 12:55N 28°58' W 013°32'0 0.0
2017-Oct-17 12:25N 28°58' W 013°32'0 0.0
2017-Oct-17 11:55N 28°58' W 013°32'0 0.0
2017-Oct-17 11:25N 28°58' W 013°32'0 0.0
2017-Oct-17 10:55N 28°58' W 013°32'0 0.0
2017-Oct-17 10:25N 28°58' W 013°32'0 0.0
2017-Oct-17 09:55N 28°58' W 013°32'0 0.6
2017-Oct-17 09:30N 28°58' W 013°32'4 7.9
2017-Oct-17 08:59N 28°58' W 013°27'612.4
2017-Oct-17 08:30N 28°60' W 013°21'713.7
2017-Oct-17 07:59N 29°05' W 013°15'6513.9
2017-Oct-17 03:16N 30°07' W 012°51'614.6
2017-Oct-17 02:52N 30°13' W 012°49'514.7
2017-Oct-17 02:30N 30°18' W 012°47'714.8
2017-Oct-17 02:00N 30°25' W 012°44'914.6
2017-Oct-17 01:24N 30°33' W 012°41'614.6
2017-Oct-17 01:00N 30°39' W 012°39'814.9
2017-Oct-17 00:30N 30°46' W 012°36'2014.4
2017-Oct-16 23:05N 31°05' W 012°29'115.4
2017-Oct-16 23:01N 31°06' W 012°28'915.1
2017-Oct-16 22:25N 31°14' W 012°25'614.4
2017-Oct-16 22:00N 31°20' W 012°23'814.7
2017-Oct-16 21:25N 31°28' W 012°20'714.3
2017-Oct-16 20:58N 31°34' W 012°17'713.8
2017-Oct-16 20:25N 31°42' W 012°14'614.1
2017-Oct-16 20:01N 31°47' W 012°12'1214.5
2017-Oct-16 19:13N 31°58' W 012°08'314.7
2017-Oct-16 19:00N 32°01' W 012°07'814.7
2017-Oct-16 18:28N 32°08' W 012°04'714.6
2017-Oct-16 17:59N 32°15' W 012°01'28115.1
2017-Oct-15 23:25N 36°42' W 010°12'2214.7
2017-Oct-15 21:56N 37°02' W 010°03'1114.4
2017-Oct-15 21:09N 37°13' W 009°59'214.7
2017-Oct-15 21:00N 37°15' W 009°58'714.7
2017-Oct-15 20:31N 37°22' W 009°56'714.7
2017-Oct-15 20:01N 37°29' W 009°54'713.6
2017-Oct-15 19:31N 37°36' W 009°51'714.0
2017-Oct-15 19:01N 37°42' W 009°47'714.0
2017-Oct-15 18:30N 37°48' W 009°44'714.0
2017-Oct-15 18:00N 37°55' W 009°41'713.9
2017-Oct-15 17:31N 38°01' W 009°38'714.2
2017-Oct-15 17:01N 38°08' W 009°35'714.3
2017-Oct-15 16:31N 38°15' W 009°32'714.6
2017-Oct-15 16:01N 38°22' W 009°30'714.2
2017-Oct-15 15:31N 38°29' W 009°27'714.8
2017-Oct-15 15:01N 38°36' W 009°23'1413.9
2017-Oct-15 14:00N 38°42' W 009°08'0 0.7
2017-Oct-15 13:27N 38°43' W 009°07'0 0.0
2017-Oct-15 12:57N 38°43' W 009°07'0 0.0
2017-Oct-15 12:27N 38°43' W 009°07'0 0.0
2017-Oct-15 12:00N 38°43' W 009°07'0 0.0
2017-Oct-15 11:30N 38°43' W 009°07'0 0.0
2017-Oct-15 11:00N 38°43' W 009°07'0 0.0
2017-Oct-15 10:30N 38°43' W 009°07'0 0.0
2017-Oct-15 10:00N 38°43' W 009°07'0 0.0
2017-Oct-15 09:30N 38°43' W 009°07'0 0.0
2017-Oct-15 09:00N 38°43' W 009°07'0 0.0
2017-Oct-15 08:30N 38°43' W 009°07'0 0.4
2017-Oct-15 08:01N 38°43' W 009°07'5 9.5
2017-Oct-15 07:30N 38°41' W 009°13'713.3
2017-Oct-15 07:00N 38°38' W 009°21'714.7
2017-Oct-15 06:30N 38°38' W 009°30'815.9
2017-Oct-15 06:00N 38°39' W 009°40'815.8
2017-Oct-15 05:30N 38°47' W 009°43'816.1
2017-Oct-15 05:00N 38°55' W 009°44'816.6
2017-Oct-15 04:30N 39°03' W 009°45'816.4
2017-Oct-15 04:00N 39°11' W 009°45'816.6
2017-Oct-15 03:30N 39°19' W 009°46'816.1
2017-Oct-15 03:00N 39°27' W 009°47'816.3
2017-Oct-15 02:30N 39°36' W 009°48'46815.7
2017-Oct-13 20:43N 47°15' W 007°45'1616.3
2017-Oct-13 19:43N 47°30' W 007°36'8516.2
2017-Oct-13 14:27N 48°49' W 006°45'916.4
2017-Oct-13 13:55N 48°57' W 006°40'716.3
2017-Oct-13 13:29N 49°03' W 006°36'816.2
2017-Oct-13 13:00N 49°10' W 006°31'816.0
2017-Oct-13 12:30N 49°18' W 006°27'1015.9
2017-Oct-13 11:53N 49°27' W 006°21'1715.6
2017-Oct-13 10:47N 49°43' W 006°10'415.6
2017-Oct-13 10:29N 49°47' W 006°08'915.8
2017-Oct-13 09:56N 49°55' W 006°03'915.6
2017-Oct-13 09:21N 50°04' W 006°02'515.4
2017-Oct-13 09:00N 50°09' W 006°01'815.3
2017-Oct-13 08:30N 50°17' W 005°60'814.5
2017-Oct-13 07:57N 50°24' W 005°55'715.0
2017-Oct-13 07:30N 50°28' W 005°46'815.3
2017-Oct-13 07:00N 50°33' W 005°37'815.3
2017-Oct-13 06:30N 50°38' W 005°28'815.5
2017-Oct-13 06:00N 50°43' W 005°19'815.6
2017-Oct-13 05:30N 50°49' W 005°10'815.7
2017-Oct-13 05:00N 50°54' W 005°00'815.9
2017-Oct-13 04:30N 50°59' W 004°51'816.1
2017-Oct-13 04:00N 51°04' W 004°41'816.5
2017-Oct-13 03:30N 51°10' W 004°31'917.0
2017-Oct-13 03:00N 51°15' W 004°21'917.3
2017-Oct-13 02:30N 51°17' W 004°07'1018.0
2017-Oct-13 01:58N 51°18' W 003°52'818.0
2017-Oct-13 01:30N 51°20' W 003°39'917.4
2017-Oct-13 01:00N 51°20' W 003°25'715.1
2017-Oct-13 00:30N 51°21' W 003°13'611.2
2017-Oct-13 00:00N 51°23' W 003°05'713.4
2017-Oct-12 23:30N 51°27' W 002°56'612.8
2017-Oct-12 23:00N 51°30' W 002°47'3 5.1
2017-Oct-12 22:30N 51°30' W 002°43'0 0.3
2017-Oct-12 22:00N 51°30' W 002°43'0 0.0
2017-Oct-12 21:30N 51°30' W 002°43'0 0.0
2017-Oct-12 21:00N 51°30' W 002°43'0 0.0
2017-Oct-12 20:30N 51°30' W 002°43'0 0.0
2017-Oct-12 20:00N 51°30' W 002°43'0 0.0
2017-Oct-12 19:30N 51°30' W 002°43'0 0.0
2017-Oct-12 19:00N 51°30' W 002°43'0 0.0
2017-Oct-12 18:30N 51°30' W 002°43'0 0.0
2017-Oct-12 18:00N 51°30' W 002°43'0 0.0
2017-Oct-12 17:30N 51°30' W 002°43'0 0.0
2017-Oct-12 17:00N 51°30' W 002°43'0 0.0
2017-Oct-12 16:30N 51°30' W 002°43'0 0.0
2017-Oct-12 16:00N 51°30' W 002°43'0 0.0
2017-Oct-12 15:30N 51°30' W 002°43'0 0.0
2017-Oct-12 15:00N 51°30' W 002°43'0 0.0
2017-Oct-12 14:30N 51°30' W 002°43'0 0.0
2017-Oct-12 14:00N 51°30' W 002°43'0 0.0
2017-Oct-12 13:30N 51°30' W 002°43'0 0.0
2017-Oct-12 13:00N 51°30' W 002°43'0 0.0
2017-Oct-12 12:30N 51°30' W 002°43'0 0.0
2017-Oct-12 11:54N 51°30' W 002°43'0 0.0
2017-Oct-12 11:31N 51°30' W 002°43'0 0.1
2017-Oct-12 11:01N 51°30' W 002°43'0 0.5
2017-Oct-12 10:31N 51°30' W 002°43'2 3.6
2017-Oct-12 10:01N 51°30' W 002°46'714.0
2017-Oct-12 09:30N 51°27' W 002°56'1115.7
2017-Oct-12 08:49N 51°21' W 003°11'4414.2
2017-Oct-12 05:40N 51°13' W 004°21'210.3
2017-Oct-12 05:29N 51°12' W 004°23'510.1
2017-Oct-12 04:58N 51°09' W 004°30'5 9.6
2017-Oct-12 04:27N 51°06' W 004°37'4 9.0
2017-Oct-12 04:00N 51°04' W 004°42'5 9.1
2017-Oct-12 03:30N 51°00' W 004°47'4 9.0
2017-Oct-12 03:00N 50°57' W 004°51'5 9.1
2017-Oct-12 02:30N 50°54' W 004°57'5 9.0
2017-Oct-12 02:00N 50°51' W 005°02'5 9.0
2017-Oct-12 01:30N 50°48' W 005°07'4 8.9
2017-Oct-12 01:00N 50°45' W 005°12'5 9.0
2017-Oct-12 00:30N 50°42' W 005°18'5 9.0
2017-Oct-12 00:00N 50°38' W 005°23'5 9.2
2017-Oct-11 23:30N 50°35' W 005°28'5 9.6
2017-Oct-11 23:00N 50°32' W 005°33'5 9.8
2017-Oct-11 22:30N 50°29' W 005°39'510.0
2017-Oct-11 22:00N 50°25' W 005°45'510.4
2017-Oct-11 21:30N 50°22' W 005°50'5 9.4
2017-Oct-11 21:00N 50°17' W 005°53'510.0
2017-Oct-11 20:30N 50°12' W 005°53'5 9.9
2017-Oct-11 20:00N 50°07' W 005°53'41113.2
2017-Oct-10 12:57N 43°30' W 008°25'102 5.5
2017-Oct-09 18:27N 41°55' W 009°15'715.9
2017-Oct-09 18:00N 41°49' W 009°11'1615.9
2017-Oct-09 16:59N 41°34' W 009°02'  
Track history (hours):
 
Tides and Currents Weather Stations Pressure Air Temp Water Temp Dewpoint Dewpoint Depression Visibility Wind Speed Wind Dir Waves Ship Positions

Marco Polo

Operator: Orient Lines

Last reported at 2017-Oct-19 16:58 UTC. Time now 2017-Oct-20 03:38 UTC.
Position N 29°05' W 016°11'.

Type: Ship. MMSI: 308691456.

Date/timePositionNaut miles runAvg speedWind from/ knotsBaromVisibWave heightAir tempDewpointWater temp
2017-Oct-19 16:58N 29°05' W 016°11'815.9
2017-Oct-19 16:30N 28°57' W 016°10'816.1
2017-Oct-19 15:59N 28°49' W 016°08'1815.7
2017-Oct-19 14:51N 28°31' W 016°05'615.7
2017-Oct-19 14:29N 28°29' W 016°11'3 0.7
2017-Oct-19 10:12N 28°28' W 016°14'0 0.0
2017-Oct-19 09:57N 28°28' W 016°14'0 0.0
2017-Oct-19 09:24N 28°28' W 016°14'0 0.0
2017-Oct-19 09:00N 28°28' W 016°14'0 0.0
2017-Oct-19 08:30N 28°28' W 016°14'0 0.0
2017-Oct-19 07:42N 28°28' W 016°14'0 0.0
2017-Oct-19 07:30N 28°28' W 016°14'0 0.0
2017-Oct-19 07:00N 28°28' W 016°14'0 0.0
2017-Oct-19 06:30N 28°28' W 016°14'0 0.0
2017-Oct-19 06:00N 28°28' W 016°14'0 0.1
2017-Oct-19 05:30N 28°28' W 016°14'1 2.9
2017-Oct-19 05:00N 28°28' W 016°13'3 6.1
2017-Oct-19 04:30N 28°28' W 016°09'5 9.1
2017-Oct-19 04:00N 28°26' W 016°05'5 9.7
2017-Oct-19 03:30N 28°24' W 015°59'5 9.7
2017-Oct-19 03:00N 28°22' W 015°54'5 9.5
2017-Oct-19 02:30N 28°21' W 015°49'5 9.5
2017-Oct-19 02:00N 28°19' W 015°44'1 3.0
2017-Oct-19 01:30N 28°20' W 015°43'2 4.9
2017-Oct-19 01:00N 28°19' W 015°40'510.3
2017-Oct-19 00:30N 28°21' W 015°35'5 9.8
2017-Oct-19 00:00N 28°17' W 015°32'4 8.2
2017-Oct-18 23:30N 28°15' W 015°28'5 9.7
2017-Oct-18 23:00N 28°14' W 015°23'5 9.1
2017-Oct-18 22:30N 28°10' W 015°22'3 6.9
2017-Oct-18 22:00N 28°08' W 015°25'1 2.0
2017-Oct-18 21:30N 28°08' W 015°25'0 0.0
2017-Oct-18 20:56N 28°08' W 015°25'0 0.0
2017-Oct-18 20:26N 28°08' W 015°25'0 0.0
2017-Oct-18 19:56N 28°08' W 015°25'0 0.0
2017-Oct-18 19:26N 28°08' W 015°25'0 0.0
2017-Oct-18 18:56N 28°08' W 015°25'0 0.0
2017-Oct-18 18:26N 28°08' W 015°25'0 0.0
2017-Oct-18 17:59N 28°08' W 015°25'0 0.0
2017-Oct-18 17:29N 28°08' W 015°25'0 0.0
2017-Oct-18 16:59N 28°08' W 015°25'0 0.0
2017-Oct-18 16:29N 28°08' W 015°25'0 0.0
2017-Oct-18 15:59N 28°08' W 015°25'0 0.0
2017-Oct-18 15:29N 28°08' W 015°25'0 0.0
2017-Oct-18 14:59N 28°08' W 015°25'0 0.0
2017-Oct-18 13:59N 28°08' W 015°25'0 0.0
2017-Oct-18 13:29N 28°08' W 015°25'0 0.0
2017-Oct-18 12:59N 28°08' W 015°25'0 0.0
2017-Oct-18 12:29N 28°08' W 015°25'0 0.0
2017-Oct-18 11:59N 28°08' W 015°25'0 0.0
2017-Oct-18 11:29N 28°08' W 015°25'0 0.0
2017-Oct-18 10:59N 28°08' W 015°25'0 0.0
2017-Oct-18 10:29N 28°08' W 015°25'0 0.0
2017-Oct-18 09:50N 28°08' W 015°25'0 0.0
2017-Oct-18 09:20N 28°08' W 015°25'0 0.0
2017-Oct-18 08:50N 28°08' W 015°25'0 0.0
2017-Oct-18 08:23N 28°08' W 015°25'0 0.0
2017-Oct-18 07:53N 28°08' W 015°25'0 0.0
2017-Oct-18 07:23N 28°08' W 015°25'0 0.0
2017-Oct-18 06:53N 28°08' W 015°25'0 0.0
2017-Oct-18 06:23N 28°08' W 015°25'0 0.0
2017-Oct-18 05:53N 28°08' W 015°25'0 0.0
2017-Oct-18 05:30N 28°08' W 015°25'1 2.8
2017-Oct-18 05:00N 28°07' W 015°25'611.0
2017-Oct-18 04:30N 28°08' W 015°19'713.6
2017-Oct-18 04:00N 28°09' W 015°11'713.7
2017-Oct-18 03:30N 28°11' W 015°03'612.9
2017-Oct-18 03:01N 28°15' W 014°58'714.3
2017-Oct-18 02:30N 28°21' W 014°55'713.3
2017-Oct-18 02:00N 28°25' W 014°48'511.1
2017-Oct-18 01:30N 28°28' W 014°43'4710.3
2017-Oct-17 21:00N 28°49' W 013°55'1610.3
2017-Oct-17 19:27N 28°53' W 013°38'613.5
2017-Oct-17 18:59N 28°57' W 013°32'1 0.8
2017-Oct-17 17:46N 28°58' W 013°32'0 0.0
2017-Oct-17 17:28N 28°58' W 013°32'0 0.0
2017-Oct-17 16:58N 28°58' W 013°32'0 0.0
2017-Oct-17 16:25N 28°58' W 013°32'0 0.0
2017-Oct-17 15:58N 28°58' W 013°32'0 0.0
2017-Oct-17 15:19N 28°58' W 013°32'0 0.0
2017-Oct-17 14:55N 28°58' W 013°32'0 0.0
2017-Oct-17 14:25N 28°58' W 013°32'0 0.0
2017-Oct-17 13:55N 28°58' W 013°32'0 0.0
2017-Oct-17 13:19N 28°58' W 013°32'0 0.0
2017-Oct-17 12:55N 28°58' W 013°32'0 0.0
2017-Oct-17 12:25N 28°58' W 013°32'0 0.0
2017-Oct-17 11:55N 28°58' W 013°32'0 0.0
2017-Oct-17 11:25N 28°58' W 013°32'0 0.0
2017-Oct-17 10:55N 28°58' W 013°32'0 0.0
2017-Oct-17 10:25N 28°58' W 013°32'0 0.0
2017-Oct-17 09:55N 28°58' W 013°32'0 0.6
2017-Oct-17 09:30N 28°58' W 013°32'4 7.9
2017-Oct-17 08:59N 28°58' W 013°27'612.4
2017-Oct-17 08:30N 28°60' W 013°21'713.7
2017-Oct-17 07:59N 29°05' W 013°15'6513.9
2017-Oct-17 03:16N 30°07' W 012°51'614.6
2017-Oct-17 02:52N 30°13' W 012°49'514.7
2017-Oct-17 02:30N 30°18' W 012°47'714.8
2017-Oct-17 02:00N 30°25' W 012°44'914.6
2017-Oct-17 01:24N 30°33' W 012°41'614.6
2017-Oct-17 01:00N 30°39' W 012°39'814.9
2017-Oct-17 00:30N 30°46' W 012°36'2014.4
2017-Oct-16 23:05N 31°05' W 012°29'115.4
2017-Oct-16 23:01N 31°06' W 012°28'915.1
2017-Oct-16 22:25N 31°14' W 012°25'614.4
2017-Oct-16 22:00N 31°20' W 012°23'814.7
2017-Oct-16 21:25N 31°28' W 012°20'714.3
2017-Oct-16 20:58N 31°34' W 012°17'713.8
2017-Oct-16 20:25N 31°42' W 012°14'614.1
2017-Oct-16 20:01N 31°47' W 012°12'1214.5
2017-Oct-16 19:13N 31°58' W 012°08'314.7
2017-Oct-16 19:00N 32°01' W 012°07'814.7
2017-Oct-16 18:28N 32°08' W 012°04'714.6
2017-Oct-16 17:59N 32°15' W 012°01'28115.1
2017-Oct-15 23:25N 36°42' W 010°12'2214.7
2017-Oct-15 21:56N 37°02' W 010°03'1114.4
2017-Oct-15 21:09N 37°13' W 009°59'214.7
2017-Oct-15 21:00N 37°15' W 009°58'714.7
2017-Oct-15 20:31N 37°22' W 009°56'714.7
2017-Oct-15 20:01N 37°29' W 009°54'713.6
2017-Oct-15 19:31N 37°36' W 009°51'714.0
2017-Oct-15 19:01N 37°42' W 009°47'714.0
2017-Oct-15 18:30N 37°48' W 009°44'714.0
2017-Oct-15 18:00N 37°55' W 009°41'713.9
2017-Oct-15 17:31N 38°01' W 009°38'714.2
2017-Oct-15 17:01N 38°08' W 009°35'714.3
2017-Oct-15 16:31N 38°15' W 009°32'714.6
2017-Oct-15 16:01N 38°22' W 009°30'714.2
2017-Oct-15 15:31N 38°29' W 009°27'714.8
2017-Oct-15 15:01N 38°36' W 009°23'1413.9
2017-Oct-15 14:00N 38°42' W 009°08'0 0.7
2017-Oct-15 13:27N 38°43' W 009°07'0 0.0
2017-Oct-15 12:57N 38°43' W 009°07'0 0.0
2017-Oct-15 12:27N 38°43' W 009°07'0 0.0
2017-Oct-15 12:00N 38°43' W 009°07'0 0.0
2017-Oct-15 11:30N 38°43' W 009°07'0 0.0
2017-Oct-15 11:00N 38°43' W 009°07'0 0.0
2017-Oct-15 10:30N 38°43' W 009°07'0 0.0
2017-Oct-15 10:00N 38°43' W 009°07'0 0.0
2017-Oct-15 09:30N 38°43' W 009°07'0 0.0
2017-Oct-15 09:00N 38°43' W 009°07'0 0.0
2017-Oct-15 08:30N 38°43' W 009°07'0 0.4
2017-Oct-15 08:01N 38°43' W 009°07'5 9.5
2017-Oct-15 07:30N 38°41' W 009°13'713.3
2017-Oct-15 07:00N 38°38' W 009°21'714.7
2017-Oct-15 06:30N 38°38' W 009°30'815.9
2017-Oct-15 06:00N 38°39' W 009°40'815.8
2017-Oct-15 05:30N 38°47' W 009°43'816.1
2017-Oct-15 05:00N 38°55' W 009°44'816.6
2017-Oct-15 04:30N 39°03' W 009°45'816.4
2017-Oct-15 04:00N 39°11' W 009°45'816.6
2017-Oct-15 03:30N 39°19' W 009°46'816.1
2017-Oct-15 03:00N 39°27' W 009°47'816.3
2017-Oct-15 02:30N 39°36' W 009°48'46815.7
2017-Oct-13 20:43N 47°15' W 007°45'1616.3
2017-Oct-13 19:43N 47°30' W 007°36'8516.2
2017-Oct-13 14:27N 48°49' W 006°45'916.4
2017-Oct-13 13:55N 48°57' W 006°40'716.3
2017-Oct-13 13:29N 49°03' W 006°36'816.2
2017-Oct-13 13:00N 49°10' W 006°31'816.0
2017-Oct-13 12:30N 49°18' W 006°27'1015.9
2017-Oct-13 11:53N 49°27' W 006°21'1715.6
2017-Oct-13 10:47N 49°43' W 006°10'415.6
2017-Oct-13 10:29N 49°47' W 006°08'915.8
2017-Oct-13 09:56N 49°55' W 006°03'915.6
2017-Oct-13 09:21N 50°04' W 006°02'515.4
2017-Oct-13 09:00N 50°09' W 006°01'815.3
2017-Oct-13 08:30N 50°17' W 005°60'814.5
2017-Oct-13 07:57N 50°24' W 005°55'715.0
2017-Oct-13 07:30N 50°28' W 005°46'815.3
2017-Oct-13 07:00N 50°33' W 005°37'815.3
2017-Oct-13 06:30N 50°38' W 005°28'815.5
2017-Oct-13 06:00N 50°43' W 005°19'815.6
2017-Oct-13 05:30N 50°49' W 005°10'815.7
2017-Oct-13 05:00N 50°54' W 005°00'815.9
2017-Oct-13 04:30N 50°59' W 004°51'816.1
2017-Oct-13 04:00N 51°04' W 004°41'816.5
2017-Oct-13 03:30N 51°10' W 004°31'917.0
2017-Oct-13 03:00N 51°15' W 004°21'917.3
2017-Oct-13 02:30N 51°17' W 004°07'1018.0
2017-Oct-13 01:58N 51°18' W 003°52'818.0
2017-Oct-13 01:30N 51°20' W 003°39'917.4
2017-Oct-13 01:00N 51°20' W 003°25'715.1
2017-Oct-13 00:30N 51°21' W 003°13'611.2
2017-Oct-13 00:00N 51°23' W 003°05'713.4
2017-Oct-12 23:30N 51°27' W 002°56'612.8
2017-Oct-12 23:00N 51°30' W 002°47'3 5.1
2017-Oct-12 22:30N 51°30' W 002°43'0 0.3
2017-Oct-12 22:00N 51°30' W 002°43'0 0.0
2017-Oct-12 21:30N 51°30' W 002°43'0 0.0
2017-Oct-12 21:00N 51°30' W 002°43'0 0.0
2017-Oct-12 20:30N 51°30' W 002°43'0 0.0
2017-Oct-12 20:00N 51°30' W 002°43'0 0.0
2017-Oct-12 19:30N 51°30' W 002°43'0 0.0
2017-Oct-12 19:00N 51°30' W 002°43'0 0.0
2017-Oct-12 18:30N 51°30' W 002°43'0 0.0
2017-Oct-12 18:00N 51°30' W 002°43'0 0.0
2017-Oct-12 17:30N 51°30' W 002°43'0 0.0
2017-Oct-12 17:00N 51°30' W 002°43'0 0.0
2017-Oct-12 16:30N 51°30' W 002°43'0 0.0
2017-Oct-12 16:00N 51°30' W 002°43'0 0.0
2017-Oct-12 15:30N 51°30' W 002°43'0 0.0
2017-Oct-12 15:00N 51°30' W 002°43'0 0.0
2017-Oct-12 14:30N 51°30' W 002°43'0 0.0
2017-Oct-12 14:00N 51°30' W 002°43'0 0.0
2017-Oct-12 13:30N 51°30' W 002°43'0 0.0
2017-Oct-12 13:00N 51°30' W 002°43'0 0.0
2017-Oct-12 12:30N 51°30' W 002°43'0 0.0
2017-Oct-12 11:54N 51°30' W 002°43'0 0.0
2017-Oct-12 11:31N 51°30' W 002°43'0 0.1
2017-Oct-12 11:01N 51°30' W 002°43'0 0.5
2017-Oct-12 10:31N 51°30' W 002°43'2 3.6
2017-Oct-12 10:01N 51°30' W 002°46'714.0
2017-Oct-12 09:30N 51°27' W 002°56'1115.7
2017-Oct-12 08:49N 51°21' W 003°11'4414.2
2017-Oct-12 05:40N 51°13' W 004°21'210.3
2017-Oct-12 05:29N 51°12' W 004°23'510.1
2017-Oct-12 04:58N 51°09' W 004°30'5 9.6
2017-Oct-12 04:27N 51°06' W 004°37'4 9.0
2017-Oct-12 04:00N 51°04' W 004°42'5 9.1
2017-Oct-12 03:30N 51°00' W 004°47'4 9.0
2017-Oct-12 03:00N 50°57' W 004°51'5 9.1
2017-Oct-12 02:30N 50°54' W 004°57'5 9.0
2017-Oct-12 02:00N 50°51' W 005°02'5 9.0
2017-Oct-12 01:30N 50°48' W 005°07'4 8.9
2017-Oct-12 01:00N 50°45' W 005°12'5 9.0
2017-Oct-12 00:30N 50°42' W 005°18'5 9.0
2017-Oct-12 00:00N 50°38' W 005°23'5 9.2
2017-Oct-11 23:30N 50°35' W 005°28'5 9.6
2017-Oct-11 23:00N 50°32' W 005°33'5 9.8
2017-Oct-11 22:30N 50°29' W 005°39'510.0
2017-Oct-11 22:00N 50°25' W 005°45'510.4
2017-Oct-11 21:30N 50°22' W 005°50'5 9.4
2017-Oct-11 21:00N 50°17' W 005°53'510.0
2017-Oct-11 20:30N 50°12' W 005°53'5 9.9
2017-Oct-11 20:00N 50°07' W 005°53'41113.2
2017-Oct-10 12:57N 43°30' W 008°25'102 5.5
2017-Oct-09 18:27N 41°55' W 009°15'715.9
2017-Oct-09 18:00N 41°49' W 009°11'1615.9
2017-Oct-09 16:59N 41°34' W 009°02'  

Dump ship's entire track history